createdAt,value
2022-08-17T00:01:00.640Z,3.10
2022-08-17T00:02:23.104Z,3.30
2022-08-17T00:03:29.572Z,3.00
2022-08-17T00:04:33.417Z,3.10
2022-08-17T00:05:41.594Z,3.00
2022-08-17T00:06:45.894Z,3.00
2022-08-17T00:07:51.959Z,3.00
2022-08-17T00:08:58.673Z,3.30
2022-08-17T00:10:02.205Z,3.30
2022-08-17T00:11:08.885Z,3.00
2022-08-17T00:12:41.997Z,2.90
2022-08-17T00:13:41.767Z,3.20
2022-08-17T00:14:46.401Z,3.10
2022-08-17T00:15:50.177Z,2.90
2022-08-17T00:16:57.069Z,3.00
2022-08-17T00:18:02.795Z,3.00
2022-08-17T00:19:09.516Z,3.10
2022-08-17T00:20:13.661Z,3.10
2022-08-17T00:21:25.200Z,2.80
2022-08-17T00:22:35.027Z,3.30
2022-08-17T00:23:44.322Z,2.80
2022-08-17T00:24:53.101Z,3.20
2022-08-17T00:25:56.222Z,3.20
2022-08-17T00:26:59.616Z,3.50
2022-08-17T00:28:03.073Z,2.90
2022-08-17T00:29:07.809Z,3.30
2022-08-17T00:30:15.301Z,3.10
2022-08-17T00:31:18.907Z,3.30
2022-08-17T00:33:10.957Z,2.90
2022-08-17T00:33:45.749Z,3.10
2022-08-17T00:34:48.937Z,3.10
2022-08-17T00:35:55.733Z,3.10
2022-08-17T00:36:58.881Z,3.10
2022-08-17T00:38:02.075Z,2.70
2022-08-17T00:39:05.764Z,2.90
2022-08-17T00:40:12.734Z,3.40
2022-08-17T00:41:19.787Z,3.10
2022-08-17T00:42:26.416Z,3.10
2022-08-17T00:43:41.136Z,3.10
2022-08-17T00:44:46.594Z,3.20
2022-08-17T00:45:49.869Z,3.10
2022-08-17T00:46:57.545Z,3.20
2022-08-17T00:48:01.013Z,3.20
2022-08-17T00:49:06.506Z,3.10
2022-08-17T00:50:12.607Z,3.30
2022-08-17T00:51:27.697Z,3.10
2022-08-17T00:52:36.323Z,3.00
2022-08-17T00:53:43.927Z,3.40
2022-08-17T00:54:52.553Z,3.40
2022-08-17T00:55:56.049Z,3.30
2022-08-17T00:57:04.987Z,3.60
2022-08-17T00:58:08.609Z,3.00
2022-08-17T00:59:15.865Z,3.40
2022-08-17T01:00:27.366Z,3.10
2022-08-17T01:01:32.241Z,3.00
2022-08-17T01:02:43.005Z,3.40
2022-08-17T01:03:46.458Z,3.40
2022-08-17T01:04:53.112Z,3.30
2022-08-17T01:06:00.657Z,3.30
2022-08-17T01:07:06.440Z,3.50
2022-08-17T01:08:16.165Z,3.30
2022-08-17T01:09:20.062Z,3.30
2022-08-17T01:10:58.557Z,3.50
2022-08-17T01:11:55.016Z,3.00
2022-08-17T01:13:00.325Z,3.10
2022-08-17T01:14:04.291Z,3.20
2022-08-17T01:15:08.045Z,3.20
2022-08-17T01:16:16.097Z,3.60
2022-08-17T01:17:19.522Z,3.30
2022-08-17T01:18:23.190Z,3.40
2022-08-17T01:19:30.641Z,3.20
2022-08-17T01:20:47.531Z,3.00
2022-08-17T01:21:51.849Z,3.20
2022-08-17T01:22:55.221Z,3.10
2022-08-17T01:23:59.727Z,3.20
2022-08-17T01:25:08.283Z,3.20
2022-08-17T01:26:11.592Z,3.60
2022-08-17T01:27:18.321Z,3.30
2022-08-17T01:28:52.372Z,3.40
2022-08-17T01:29:58.145Z,3.20
2022-08-17T01:31:06.565Z,3.30
2022-08-17T01:32:10.435Z,3.10
2022-08-17T01:33:13.905Z,3.50
2022-08-17T01:34:25.111Z,3.10
2022-08-17T01:35:57.617Z,2.80
2022-08-17T01:37:23.798Z,3.30
2022-08-17T01:39:10.167Z,3.10
2022-08-17T01:40:43.361Z,3.30
2022-08-17T01:42:03.740Z,3.50
2022-08-17T01:43:50.928Z,3.10
2022-08-17T01:45:15.310Z,3.20
2022-08-17T01:46:28.883Z,3.20
2022-08-17T01:47:32.660Z,3.10
2022-08-17T01:48:39.471Z,3.10
2022-08-17T01:49:42.600Z,3.40
2022-08-17T01:50:48.101Z,3.00
2022-08-17T01:51:51.969Z,3.30
2022-08-17T01:53:05.578Z,3.20
2022-08-17T01:54:15.280Z,3.10
2022-08-17T01:55:27.320Z,3.30
2022-08-17T01:56:33.015Z,3.10
2022-08-17T01:57:36.706Z,2.80
2022-08-17T01:58:44.191Z,3.10
2022-08-17T01:59:50.130Z,3.10
2022-08-17T02:01:00.939Z,3.20
2022-08-17T02:02:07.543Z,3.40
2022-08-17T02:03:10.981Z,3.20
2022-08-17T02:04:15.039Z,3.40
2022-08-17T02:05:18.636Z,3.30
2022-08-17T02:06:27.569Z,2.90
2022-08-17T02:07:31.334Z,3.10
2022-08-17T02:08:38.998Z,3.30
2022-08-17T02:09:59.480Z,2.80
2022-08-17T02:11:11.159Z,3.30
2022-08-17T02:12:37.900Z,3.10
2022-08-17T02:13:38.313Z,3.20
2022-08-17T02:14:41.777Z,3.00
2022-08-17T02:15:45.391Z,2.90
2022-08-17T02:16:48.589Z,3.30
2022-08-17T02:17:54.738Z,2.90
2022-08-17T02:18:58.025Z,3.20
2022-08-17T02:20:01.911Z,3.30
2022-08-17T02:21:06.029Z,3.20
2022-08-17T02:22:09.471Z,3.20
2022-08-17T02:23:15.887Z,2.80
2022-08-17T02:24:59.440Z,3.50
2022-08-17T02:25:59.255Z,3.20
2022-08-17T02:27:02.439Z,3.00
2022-08-17T02:28:05.827Z,3.30
2022-08-17T02:29:09.158Z,3.30
2022-08-17T02:30:59.851Z,3.10
2022-08-17T02:31:38.106Z,3.00
2022-08-17T02:32:41.535Z,3.10
2022-08-17T02:33:44.630Z,3.00
2022-08-17T02:35:01.349Z,3.50
2022-08-17T02:36:06.782Z,3.30
2022-08-17T02:37:10.058Z,3.10
2022-08-17T02:38:13.517Z,3.10
2022-08-17T02:39:16.718Z,2.90
2022-08-17T02:40:36.232Z,3.20
2022-08-17T02:41:41.098Z,3.20
2022-08-17T02:42:45.713Z,3.30
2022-08-17T02:43:49.116Z,3.20
2022-08-17T02:44:52.347Z,3.20
2022-08-17T02:45:55.783Z,2.90
2022-08-17T02:46:59.069Z,3.10
2022-08-17T02:48:03.316Z,3.40
2022-08-17T02:49:06.572Z,3.00
2022-08-17T02:50:12.003Z,3.10
2022-08-17T02:51:15.551Z,3.20
2022-08-17T02:52:43.055Z,3.20
2022-08-17T02:53:45.015Z,3.10
2022-08-17T02:54:48.515Z,3.30
2022-08-17T02:55:52.013Z,3.20
2022-08-17T02:56:55.819Z,3.00
2022-08-17T02:58:04.036Z,3.00
2022-08-17T02:59:07.366Z,3.00
2022-08-17T03:00:14.586Z,3.30
2022-08-17T03:01:22.389Z,3.20
2022-08-17T03:02:25.842Z,3.10
2022-08-17T03:03:29.041Z,3.30
2022-08-17T03:04:34.887Z,3.10
2022-08-17T03:05:39.908Z,3.20
2022-08-17T03:06:43.098Z,3.10
2022-08-17T03:07:46.261Z,2.90
2022-08-17T03:08:49.632Z,3.10
2022-08-17T03:09:54.116Z,3.20
2022-08-17T03:10:57.583Z,3.30
2022-08-17T03:12:09.783Z,3.20
2022-08-17T03:13:16.340Z,3.20
2022-08-17T03:14:28.533Z,3.50
2022-08-17T03:15:34.173Z,3.00
2022-08-17T03:16:37.420Z,3.40
2022-08-17T03:17:42.835Z,3.10
2022-08-17T03:18:46.458Z,3.50
2022-08-17T03:19:49.979Z,3.80
2022-08-17T03:20:59.756Z,3.30
2022-08-17T03:22:35.327Z,3.40
2022-08-17T03:23:29.634Z,3.60
2022-08-17T03:24:33.820Z,3.10
2022-08-17T03:25:43.363Z,3.10
2022-08-17T03:26:47.467Z,3.50
2022-08-17T03:27:52.159Z,3.20
2022-08-17T03:28:55.441Z,3.50
2022-08-17T03:29:58.935Z,3.30
2022-08-17T03:31:03.209Z,3.20
2022-08-17T03:32:13.975Z,3.40
2022-08-17T03:33:17.663Z,3.20
2022-08-17T03:34:20.820Z,3.50
2022-08-17T03:35:26.856Z,3.60
2022-08-17T03:36:30.052Z,3.30
2022-08-17T03:37:39.448Z,3.50
2022-08-17T03:38:42.575Z,3.50
2022-08-17T03:39:48.326Z,3.20
2022-08-17T03:40:57.135Z,3.10
2022-08-17T03:42:31.929Z,3.10
2022-08-17T03:43:36.019Z,3.00
2022-08-17T03:44:39.736Z,3.50
2022-08-17T03:46:02.166Z,3.20
2022-08-17T03:47:24.437Z,3.20
2022-08-17T03:48:46.203Z,3.20
2022-08-17T03:50:08.262Z,3.10
2022-08-17T03:51:41.790Z,3.30
2022-08-17T03:54:31.165Z,3.40
2022-08-17T03:55:53.178Z,3.30
2022-08-17T03:57:09.046Z,3.30
2022-08-17T03:58:12.247Z,3.20
2022-08-17T03:59:22.248Z,3.10
2022-08-17T04:00:27.883Z,3.20
2022-08-17T04:01:31.273Z,3.30
2022-08-17T04:02:35.007Z,3.20
2022-08-17T04:03:38.132Z,3.40
2022-08-17T04:04:41.314Z,3.50
2022-08-17T04:05:44.915Z,3.30
2022-08-17T04:06:48.571Z,3.50
2022-08-17T04:07:52.011Z,3.20
2022-08-17T04:08:59.199Z,3.30
2022-08-17T04:10:05.103Z,3.60
2022-08-17T04:11:08.438Z,3.40
2022-08-17T04:12:11.836Z,3.30
2022-08-17T04:13:15.128Z,3.40
2022-08-17T04:14:27.471Z,3.20
2022-08-17T04:15:34.172Z,3.30
2022-08-17T04:16:37.583Z,3.70
2022-08-17T04:17:41.646Z,3.90
2022-08-17T04:18:45.058Z,4.10
2022-08-17T04:19:48.251Z,3.60
2022-08-17T04:20:51.576Z,3.80
2022-08-17T04:21:54.877Z,3.50
2022-08-17T04:23:32.955Z,3.80
2022-08-17T04:24:38.933Z,3.50
2022-08-17T04:25:44.997Z,4.00
2022-08-17T04:26:52.547Z,3.50
2022-08-17T04:28:02.155Z,3.50
2022-08-17T04:29:05.609Z,3.70
2022-08-17T04:30:09.786Z,3.20
2022-08-17T04:31:14.345Z,3.20
2022-08-17T04:33:00.608Z,3.30
2022-08-17T04:33:48.496Z,3.40
2022-08-17T04:34:51.638Z,3.20
2022-08-17T04:35:58.625Z,3.40
2022-08-17T04:37:04.006Z,3.60
2022-08-17T04:38:10.428Z,3.20
2022-08-17T04:39:13.614Z,3.60
2022-08-17T04:40:37.221Z,3.50
2022-08-17T04:42:01.090Z,3.50
2022-08-17T04:43:19.581Z,3.40
2022-08-17T04:44:28.365Z,3.60
2022-08-17T04:45:55.579Z,3.40
2022-08-17T04:47:00.518Z,3.50
2022-08-17T04:48:07.388Z,3.70
2022-08-17T04:49:12.011Z,3.80
2022-08-17T04:50:15.415Z,3.70
2022-08-17T04:51:54.510Z,3.60
2022-08-17T04:52:59.818Z,3.60
2022-08-17T04:54:07.288Z,3.80
2022-08-17T04:55:11.910Z,3.80
2022-08-17T04:56:19.027Z,4.00
2022-08-17T04:57:22.347Z,3.80
2022-08-17T04:58:25.545Z,3.90
2022-08-17T04:59:28.656Z,3.90
2022-08-17T05:00:36.179Z,3.40
2022-08-17T05:01:47.514Z,3.60
2022-08-17T05:02:55.934Z,3.60
2022-08-17T05:04:21.466Z,3.80
2022-08-17T05:05:33.957Z,3.70
2022-08-17T05:06:37.613Z,3.60
2022-08-17T05:07:40.896Z,4.10
2022-08-17T05:08:44.224Z,3.60
2022-08-17T05:09:47.497Z,3.60
2022-08-17T05:10:51.039Z,3.90
2022-08-17T05:11:55.292Z,4.20
2022-08-17T05:13:08.630Z,3.60
2022-08-17T05:14:13.703Z,3.80
2022-08-17T05:15:16.940Z,3.80
2022-08-17T05:16:24.546Z,3.90
2022-08-17T05:17:27.836Z,4.00
2022-08-17T05:18:32.293Z,4.10
2022-08-17T05:19:35.756Z,3.80
2022-08-17T05:20:41.714Z,4.10
2022-08-17T05:21:45.105Z,4.00
2022-08-17T05:23:10.810Z,4.10
2022-08-17T05:24:40.795Z,4.20
2022-08-17T05:25:45.655Z,4.30
2022-08-17T05:26:51.083Z,4.20
2022-08-17T05:27:56.052Z,4.10
2022-08-17T05:29:02.438Z,4.30
2022-08-17T05:30:06.980Z,4.20
2022-08-17T05:31:11.300Z,4.20
2022-08-17T05:32:39.571Z,4.00
2022-08-17T05:33:44.544Z,4.00
2022-08-17T05:34:49.685Z,4.30
2022-08-17T05:35:56.297Z,4.70
2022-08-17T05:37:02.462Z,4.30
2022-08-17T05:39:17.601Z,4.10
2022-08-17T05:40:22.214Z,4.40
2022-08-17T05:41:25.868Z,4.60
2022-08-17T05:42:29.297Z,4.40
2022-08-17T05:43:38.575Z,4.20
2022-08-17T05:44:41.832Z,4.10
2022-08-17T05:45:55.157Z,4.50
2022-08-17T05:47:00.181Z,4.30
2022-08-17T05:48:03.945Z,4.50
2022-08-17T05:49:11.238Z,4.10
2022-08-17T05:50:26.975Z,4.60
2022-08-17T05:52:18.837Z,4.50
2022-08-17T05:54:01.042Z,4.30
2022-08-17T05:55:21.379Z,4.50
2022-08-17T05:57:04.552Z,4.70
2022-08-17T05:58:35.480Z,4.70
2022-08-17T05:59:58.313Z,4.70
2022-08-17T06:01:12.753Z,5.10
2022-08-17T06:02:48.037Z,4.90
2022-08-17T06:04:23.383Z,4.80
2022-08-17T06:05:29.795Z,4.90
2022-08-17T06:06:40.024Z,4.70
2022-08-17T06:07:54.699Z,4.60
2022-08-17T06:09:33.694Z,4.90
2022-08-17T06:10:48.024Z,4.70
2022-08-17T06:12:03.943Z,4.90
2022-08-17T06:13:39.129Z,5.10
2022-08-17T06:14:52.269Z,4.80
2022-08-17T06:16:28.300Z,5.10
2022-08-17T06:17:37.854Z,4.50
2022-08-17T06:18:58.083Z,4.60
2022-08-17T06:20:10.698Z,4.10
2022-08-17T06:21:18.444Z,4.60
2022-08-17T06:22:33.671Z,4.50
2022-08-17T06:23:41.928Z,4.70
2022-08-17T06:25:01.271Z,4.40
2022-08-17T06:26:41.059Z,4.00
2022-08-17T06:29:03.746Z,4.10
2022-08-17T06:30:25.101Z,4.40
2022-08-17T06:31:39.227Z,4.10
2022-08-17T06:32:45.469Z,4.40
2022-08-17T06:33:49.571Z,4.40
2022-08-17T06:34:53.877Z,4.10
2022-08-17T06:36:37.725Z,4.20
2022-08-17T06:37:59.675Z,4.10
2022-08-17T06:39:02.859Z,4.30
2022-08-17T06:40:20.616Z,4.30
2022-08-17T06:41:31.712Z,4.10
2022-08-17T06:43:17.072Z,4.00
2022-08-17T06:44:43.421Z,4.00
2022-08-17T06:46:07.967Z,3.80
2022-08-17T06:47:28.717Z,3.80
2022-08-17T06:48:43.607Z,3.60
2022-08-17T06:49:55.532Z,3.70
2022-08-17T06:51:03.962Z,3.60
2022-08-17T06:52:45.777Z,3.60
2022-08-17T06:53:59.996Z,3.60
2022-08-17T06:55:18.001Z,3.60
2022-08-17T06:56:54.183Z,3.80
2022-08-17T06:58:15.615Z,3.30
2022-08-17T06:59:36.271Z,3.50
2022-08-17T07:00:58.725Z,3.50
2022-08-17T07:02:07.231Z,3.40
2022-08-17T07:03:21.292Z,3.20
2022-08-17T07:04:30.333Z,3.00
2022-08-17T07:05:53.968Z,3.20
2022-08-17T07:07:27.837Z,2.90
2022-08-17T07:09:06.991Z,2.80
2022-08-17T07:10:11.566Z,3.00
2022-08-17T07:11:22.542Z,2.90
2022-08-17T07:12:31.636Z,2.90
2022-08-17T07:14:03.059Z,2.90
2022-08-17T07:15:23.392Z,2.90
2022-08-17T07:16:41.322Z,3.10
2022-08-17T07:17:48.412Z,3.20
2022-08-17T07:18:53.529Z,2.80
2022-08-17T07:20:10.438Z,2.80
2022-08-17T07:21:41.003Z,2.60
2022-08-17T07:22:57.238Z,2.70
2022-08-17T07:24:47.445Z,2.50
2022-08-17T07:25:50.894Z,2.60
2022-08-17T07:27:17.691Z,2.40
2022-08-17T07:28:23.431Z,2.40
2022-08-17T07:29:27.387Z,2.60
2022-08-17T07:30:46.822Z,2.30
2022-08-17T07:31:51.158Z,2.40
2022-08-17T07:33:04.056Z,2.70
2022-08-17T07:34:15.076Z,2.40
2022-08-17T07:36:42.803Z,2.40
2022-08-17T07:37:54.395Z,2.60
2022-08-17T07:38:58.483Z,2.30
2022-08-17T07:40:22.580Z,2.40
2022-08-17T07:41:26.856Z,2.40
2022-08-17T07:43:08.609Z,2.40
2022-08-17T07:44:18.894Z,2.20
2022-08-17T07:45:40.727Z,2.40
2022-08-17T07:47:13.700Z,2.40
2022-08-17T07:48:25.317Z,2.30
2022-08-17T07:49:31.695Z,2.50
2022-08-17T07:50:34.959Z,2.50
2022-08-17T07:51:43.707Z,2.30
2022-08-17T07:52:50.552Z,2.40
2022-08-17T07:54:13.561Z,2.10
2022-08-17T07:55:33.121Z,2.10
2022-08-17T07:57:03.742Z,2.40
2022-08-17T07:58:06.853Z,2.20
2022-08-17T07:59:14.633Z,2.10
2022-08-17T08:00:29.207Z,2.40
2022-08-17T08:01:41.579Z,2.20
2022-08-17T08:02:57.931Z,2.20
2022-08-17T08:04:01.306Z,2.30
2022-08-17T08:05:13.457Z,2.30
2022-08-17T08:06:26.629Z,2.30
2022-08-17T08:07:35.851Z,2.40
2022-08-17T08:08:43.971Z,2.30
2022-08-17T08:10:07.066Z,2.10
2022-08-17T08:11:15.793Z,2.10
2022-08-17T08:12:37.453Z,2.30
2022-08-17T08:13:44.015Z,1.90
2022-08-17T08:15:07.994Z,2.10
2022-08-17T08:16:29.398Z,2.30
2022-08-17T08:17:46.404Z,2.10
2022-08-17T08:18:57.361Z,2.10
2022-08-17T08:20:37.874Z,2.30
2022-08-17T08:21:34.551Z,2.00
2022-08-17T08:23:00.752Z,1.90
2022-08-17T08:24:30.176Z,2.20
2022-08-17T08:26:13.156Z,2.20
2022-08-17T08:27:50.586Z,2.10
2022-08-17T08:29:29.608Z,2.00
2022-08-17T08:30:40.937Z,1.90
2022-08-17T08:32:09.810Z,1.80
2022-08-17T08:33:48.577Z,1.90
2022-08-17T08:35:14.180Z,2.20
2022-08-17T08:37:14.243Z,1.90
2022-08-17T08:38:34.714Z,2.10
2022-08-17T08:39:51.269Z,1.90
2022-08-17T08:41:22.665Z,2.00
2022-08-17T08:42:38.656Z,1.90
2022-08-17T08:44:19.773Z,2.00
2022-08-17T08:45:34.246Z,2.20
2022-08-17T08:46:44.296Z,2.20
2022-08-17T08:48:06.025Z,2.20
2022-08-17T08:50:09.500Z,2.10
2022-08-17T08:51:29.456Z,2.10
2022-08-17T08:52:52.137Z,2.20
2022-08-17T08:54:27.034Z,2.00
2022-08-17T08:55:50.877Z,1.80
2022-08-17T08:57:25.642Z,2.30
2022-08-17T08:59:01.847Z,2.00
2022-08-17T09:00:13.414Z,2.00
2022-08-17T09:01:42.542Z,2.10
2022-08-17T09:03:06.921Z,2.00
2022-08-17T09:04:25.409Z,2.20
2022-08-17T09:06:00.587Z,1.90
2022-08-17T09:07:26.088Z,1.90
2022-08-17T09:08:32.550Z,2.00
2022-08-17T09:09:55.143Z,2.20
2022-08-17T09:11:23.339Z,2.00
2022-08-17T09:12:57.953Z,2.00
2022-08-17T09:14:21.332Z,2.10
2022-08-17T09:15:30.130Z,2.10
2022-08-17T09:17:03.085Z,2.10
2022-08-17T09:18:59.844Z,1.80
2022-08-17T09:20:02.543Z,1.80
2022-08-17T09:21:27.313Z,2.00
2022-08-17T09:22:56.922Z,2.10
2022-08-17T09:24:21.046Z,1.80
2022-08-17T09:25:31.727Z,1.80
2022-08-17T09:26:39.680Z,1.90
2022-08-17T09:27:53.838Z,2.00
2022-08-17T09:29:05.955Z,2.00
2022-08-17T09:30:12.336Z,1.80
2022-08-17T09:31:21.803Z,2.20
2022-08-17T09:32:33.967Z,2.10
2022-08-17T09:33:48.719Z,2.00
2022-08-17T09:34:56.321Z,1.90
2022-08-17T09:36:41.150Z,2.00
2022-08-17T09:38:18.418Z,2.00
2022-08-17T09:39:42.207Z,2.10
2022-08-17T09:41:06.871Z,1.80
2022-08-17T09:42:30.110Z,2.00
2022-08-17T09:43:59.441Z,1.90
2022-08-17T09:45:08.522Z,1.90
2022-08-17T09:46:29.011Z,2.10
2022-08-17T09:47:45.594Z,1.80
2022-08-17T09:48:59.034Z,1.80
2022-08-17T09:50:11.782Z,1.90
2022-08-17T09:51:36.470Z,1.80
2022-08-17T09:52:42.222Z,1.80
2022-08-17T09:53:45.409Z,1.80
2022-08-17T09:54:51.869Z,1.90
2022-08-17T09:56:16.677Z,2.00
2022-08-17T09:57:37.806Z,1.90
2022-08-17T09:59:14.102Z,1.80
2022-08-17T10:00:25.433Z,1.70
2022-08-17T10:01:40.294Z,1.60
2022-08-17T10:02:57.189Z,1.70
2022-08-17T10:04:09.587Z,1.80
2022-08-17T10:05:33.579Z,2.00
2022-08-17T10:07:03.693Z,1.90
2022-08-17T10:08:32.332Z,1.80
2022-08-17T10:09:48.681Z,1.90
2022-08-17T10:10:59.203Z,1.90
2022-08-17T10:12:29.921Z,1.90
2022-08-17T10:13:53.108Z,2.00
2022-08-17T10:15:15.831Z,1.80
2022-08-17T10:16:38.581Z,1.90
2022-08-17T10:18:04.270Z,1.90
2022-08-17T10:19:20.831Z,1.80
2022-08-17T10:20:30.428Z,1.80
2022-08-17T10:22:00.653Z,1.70
2022-08-17T10:23:36.363Z,1.60
2022-08-17T10:25:22.732Z,2.10
2022-08-17T10:26:54.176Z,1.80
2022-08-17T10:28:10.696Z,1.90
2022-08-17T10:29:46.207Z,1.80
2022-08-17T10:31:23.464Z,1.80
2022-08-17T10:32:39.970Z,1.80
2022-08-17T10:34:25.463Z,1.50
2022-08-17T10:35:41.210Z,1.80
2022-08-17T10:36:54.887Z,1.80
2022-08-17T10:38:17.031Z,1.70
2022-08-17T10:39:33.268Z,1.70
2022-08-17T10:40:52.294Z,2.00
2022-08-17T10:42:03.382Z,1.90
2022-08-17T10:43:41.968Z,1.70
2022-08-17T10:44:57.587Z,1.80
2022-08-17T10:46:40.479Z,1.80
2022-08-17T10:48:22.922Z,2.10
2022-08-17T10:49:29.861Z,1.80
2022-08-17T10:50:46.507Z,1.70
2022-08-17T10:51:59.474Z,1.80
2022-08-17T10:53:02.902Z,1.90
2022-08-17T10:54:27.292Z,1.80
2022-08-17T10:55:30.581Z,2.00
2022-08-17T10:56:47.005Z,1.80
2022-08-17T10:57:51.003Z,1.80
2022-08-17T10:58:59.040Z,1.60
2022-08-17T11:00:28.725Z,1.90
2022-08-17T11:01:34.979Z,1.90
2022-08-17T11:02:52.317Z,1.70
2022-08-17T11:04:01.521Z,1.80
2022-08-17T11:05:22.609Z,1.90
2022-08-17T11:07:35.786Z,1.80
2022-08-17T11:09:05.634Z,2.00
2022-08-17T11:10:27.800Z,1.90
2022-08-17T11:12:02.973Z,1.90
2022-08-17T11:13:28.151Z,2.00
2022-08-17T11:14:55.653Z,2.00
2022-08-17T11:16:32.864Z,2.10
2022-08-17T11:18:10.858Z,1.80
2022-08-17T11:19:51.095Z,2.00
2022-08-17T11:21:21.248Z,2.20
2022-08-17T11:23:02.056Z,2.20
2022-08-17T11:24:16.846Z,2.00
2022-08-17T11:25:31.903Z,1.80
2022-08-17T11:26:37.653Z,2.00
2022-08-17T11:27:41.673Z,2.10
2022-08-17T11:28:52.477Z,1.80
2022-08-17T11:30:09.802Z,2.00
2022-08-17T11:31:40.204Z,2.20
2022-08-17T11:32:54.554Z,1.80
2022-08-17T11:34:06.732Z,2.00
2022-08-17T11:35:12.958Z,2.10
2022-08-17T11:36:21.930Z,1.90
2022-08-17T11:37:44.461Z,2.00
2022-08-17T11:39:29.890Z,2.00
2022-08-17T11:41:01.311Z,2.00
2022-08-17T11:42:39.977Z,2.00
2022-08-17T11:44:03.860Z,2.30
2022-08-17T11:45:32.164Z,1.80
2022-08-17T11:47:17.033Z,1.80
2022-08-17T11:48:44.498Z,2.00
2022-08-17T11:50:12.583Z,2.10
2022-08-17T11:51:38.126Z,1.80
2022-08-17T11:52:46.089Z,2.00
2022-08-17T11:53:50.260Z,1.50
2022-08-17T11:54:53.396Z,1.90
2022-08-17T11:55:56.618Z,1.90
2022-08-17T11:57:21.649Z,1.80
2022-08-17T11:58:30.895Z,2.00
2022-08-17T11:59:34.773Z,1.70
2022-08-17T12:00:46.898Z,1.80
2022-08-17T12:01:50.006Z,2.00
2022-08-17T12:03:34.329Z,1.80
2022-08-17T12:04:37.572Z,1.80
2022-08-17T12:05:41.297Z,1.60
2022-08-17T12:06:49.042Z,1.80
2022-08-17T12:08:04.467Z,1.90
2022-08-17T12:09:31.274Z,2.00
2022-08-17T12:10:37.052Z,1.70
2022-08-17T12:12:18.645Z,1.60
2022-08-17T12:13:30.448Z,1.60
2022-08-17T12:15:09.419Z,1.70
2022-08-17T12:16:18.042Z,1.70
2022-08-17T12:17:41.272Z,2.00
2022-08-17T12:19:02.539Z,1.70
2022-08-17T12:20:11.829Z,1.70
2022-08-17T12:21:36.348Z,1.80
2022-08-17T12:22:53.846Z,1.60
2022-08-17T12:24:23.794Z,1.50
2022-08-17T12:25:56.997Z,1.50
2022-08-17T12:27:04.836Z,1.60
2022-08-17T12:28:29.523Z,1.60
2022-08-17T12:29:35.624Z,1.60
2022-08-17T12:30:50.453Z,1.50
2022-08-17T12:31:55.966Z,1.50
2022-08-17T12:32:59.222Z,1.60
2022-08-17T12:34:05.173Z,1.30
2022-08-17T12:35:39.183Z,1.60
2022-08-17T12:36:42.707Z,1.70
2022-08-17T12:37:49.171Z,1.60
2022-08-17T12:39:13.018Z,1.80
2022-08-17T12:40:26.680Z,1.90
2022-08-17T12:41:44.732Z,1.60
2022-08-17T12:43:18.546Z,1.70
2022-08-17T12:44:31.197Z,1.70
2022-08-17T12:45:39.627Z,1.60
2022-08-17T12:46:50.274Z,1.50
2022-08-17T12:48:09.530Z,1.50
2022-08-17T12:49:20.040Z,1.90
2022-08-17T12:51:34.286Z,1.50
2022-08-17T12:52:40.476Z,1.70
2022-08-17T12:53:54.136Z,1.70
2022-08-17T12:54:59.887Z,1.50
2022-08-17T12:56:10.861Z,1.80
2022-08-17T12:57:17.830Z,1.70
2022-08-17T12:58:29.896Z,1.70
2022-08-17T12:59:33.491Z,1.70
2022-08-17T13:00:47.714Z,1.20
2022-08-17T13:01:51.482Z,1.40
2022-08-17T13:02:58.403Z,1.60
2022-08-17T13:04:01.551Z,1.50
2022-08-17T13:05:17.983Z,1.40
2022-08-17T13:06:33.396Z,1.50
2022-08-17T13:07:46.730Z,1.60
2022-08-17T13:08:50.331Z,1.50
2022-08-17T13:09:53.506Z,1.50
2022-08-17T13:11:09.592Z,1.50
2022-08-17T13:12:12.676Z,1.60
2022-08-17T13:13:25.454Z,1.50
2022-08-17T13:14:28.996Z,1.80
2022-08-17T13:15:44.334Z,1.80
2022-08-17T13:16:51.650Z,1.60
2022-08-17T13:17:58.572Z,1.50
2022-08-17T13:19:39.933Z,1.40
2022-08-17T13:20:53.762Z,1.50
2022-08-17T13:22:02.243Z,1.50
2022-08-17T13:23:12.476Z,1.50
2022-08-17T13:24:29.698Z,1.60
2022-08-17T13:25:42.064Z,1.70
2022-08-17T13:26:45.029Z,1.60
2022-08-17T13:27:52.487Z,1.50
2022-08-17T13:28:55.867Z,1.50
2022-08-17T13:30:03.255Z,1.60
2022-08-17T13:31:28.338Z,1.50
2022-08-17T13:32:42.993Z,1.50
2022-08-17T13:33:47.494Z,1.60
2022-08-17T13:35:14.952Z,1.40
2022-08-17T13:36:32.261Z,1.60
2022-08-17T13:37:37.429Z,1.60
2022-08-17T13:38:51.327Z,1.50
2022-08-17T13:39:57.302Z,1.40
2022-08-17T13:41:00.688Z,1.60
2022-08-17T13:42:32.611Z,1.70
2022-08-17T13:43:50.755Z,1.70
2022-08-17T13:44:56.385Z,2.10
2022-08-17T13:46:31.443Z,1.90
2022-08-17T13:47:37.428Z,1.40
2022-08-17T13:48:40.783Z,1.50
2022-08-17T13:49:48.828Z,1.50
2022-08-17T13:50:55.388Z,1.40
2022-08-17T13:52:01.006Z,1.40
2022-08-17T13:53:24.190Z,2.30
2022-08-17T13:54:29.622Z,1.60
2022-08-17T13:55:32.755Z,1.60
2022-08-17T13:56:50.235Z,1.50
2022-08-17T13:58:03.921Z,1.70
2022-08-17T13:59:16.837Z,1.60
2022-08-17T14:00:40.522Z,1.80
2022-08-17T14:01:52.785Z,2.20
2022-08-17T14:02:58.690Z,2.50
2022-08-17T14:04:17.632Z,2.00
2022-08-17T14:05:20.660Z,1.80
2022-08-17T14:06:53.128Z,1.80
2022-08-17T14:07:56.223Z,1.60
2022-08-17T14:08:59.431Z,1.50
2022-08-17T14:10:16.317Z,1.50
2022-08-17T14:11:20.185Z,1.80
2022-08-17T14:12:26.806Z,1.90
2022-08-17T14:13:29.892Z,1.50
2022-08-17T14:14:33.199Z,1.40
2022-08-17T14:15:54.830Z,1.40
2022-08-17T14:16:59.457Z,1.40
2022-08-17T14:18:02.678Z,1.50
2022-08-17T14:19:06.147Z,1.40
2022-08-17T14:20:12.285Z,1.60
2022-08-17T14:21:15.454Z,1.30
2022-08-17T14:22:23.904Z,1.40
2022-08-17T14:23:27.198Z,1.60
2022-08-17T14:24:44.026Z,1.30
2022-08-17T14:25:48.171Z,1.30
2022-08-17T14:26:54.792Z,1.30
2022-08-17T14:27:58.369Z,1.30
2022-08-17T14:29:02.254Z,1.50
2022-08-17T14:30:07.977Z,1.60
2022-08-17T14:31:11.896Z,1.60
2022-08-17T14:32:27.123Z,1.40
2022-08-17T14:33:30.257Z,1.70
2022-08-17T14:34:33.467Z,1.60
2022-08-17T14:35:47.587Z,1.40
2022-08-17T14:36:53.787Z,1.30
2022-08-17T14:37:57.313Z,1.50
2022-08-17T14:39:00.528Z,4.30
2022-08-17T14:40:08.231Z,1.80
2022-08-17T14:41:11.621Z,1.40
2022-08-17T14:42:15.728Z,1.50
2022-08-17T14:43:21.167Z,1.30
2022-08-17T14:44:24.515Z,1.50
2022-08-17T14:45:32.395Z,1.30
2022-08-17T14:46:36.414Z,1.40
2022-08-17T14:47:41.763Z,1.50
2022-08-17T14:48:44.897Z,1.40
2022-08-17T14:49:48.670Z,1.50
2022-08-17T14:50:51.818Z,1.40
2022-08-17T14:51:54.910Z,1.70
2022-08-17T14:52:58.303Z,1.40
2022-08-17T14:54:03.051Z,1.40
2022-08-17T14:55:08.235Z,1.60
2022-08-17T14:56:11.286Z,1.40
2022-08-17T14:57:24.762Z,1.60
2022-08-17T14:58:39.357Z,1.60
2022-08-17T14:59:42.797Z,1.50
2022-08-17T15:00:45.993Z,1.60
2022-08-17T15:01:49.103Z,1.50
2022-08-17T15:02:58.581Z,1.60
2022-08-17T15:04:01.877Z,1.60
2022-08-17T15:05:06.403Z,1.80
2022-08-17T15:06:12.825Z,1.60
2022-08-17T15:07:16.588Z,1.70
2022-08-17T15:08:19.990Z,1.70
2022-08-17T15:09:23.094Z,1.80
2022-08-17T15:10:28.168Z,1.70
2022-08-17T15:11:31.461Z,1.70
2022-08-17T15:12:35.081Z,1.80
2022-08-17T15:13:38.708Z,1.50
2022-08-17T15:14:57.248Z,1.80
2022-08-17T15:16:00.366Z,1.60
2022-08-17T15:17:05.943Z,1.60
2022-08-17T15:18:09.155Z,1.70
2022-08-17T15:19:12.499Z,1.60
2022-08-17T15:20:19.549Z,1.90
2022-08-17T15:21:22.812Z,1.60
2022-08-17T15:22:27.479Z,1.70
2022-08-17T15:23:35.474Z,1.50
2022-08-17T15:24:38.784Z,1.70
2022-08-17T15:25:42.622Z,1.80
2022-08-17T15:26:45.789Z,1.80
2022-08-17T15:27:49.268Z,1.90
2022-08-17T15:28:56.198Z,1.70
2022-08-17T15:29:59.441Z,1.80
2022-08-17T15:31:02.989Z,1.70
2022-08-17T15:32:08.738Z,1.60
2022-08-17T15:33:17.992Z,1.70
2022-08-17T15:34:21.103Z,1.70
2022-08-17T15:35:29.394Z,1.50
2022-08-17T15:36:33.628Z,1.80
2022-08-17T15:37:37.993Z,1.70
2022-08-17T15:38:44.446Z,1.60
2022-08-17T15:39:47.895Z,1.70
2022-08-17T15:40:55.048Z,1.70
2022-08-17T15:42:03.296Z,1.70
2022-08-17T15:43:12.736Z,1.70
2022-08-17T15:44:15.875Z,1.80
2022-08-17T15:45:22.801Z,2.10
2022-08-17T15:46:26.688Z,1.60
2022-08-17T15:47:29.778Z,1.70
2022-08-17T15:48:43.954Z,1.80
2022-08-17T15:49:47.431Z,1.90
2022-08-17T15:50:50.727Z,1.70
2022-08-17T15:51:53.965Z,1.60
2022-08-17T15:52:59.744Z,1.90
2022-08-17T15:54:22.444Z,1.90
2022-08-17T15:55:28.783Z,1.80
2022-08-17T15:56:32.862Z,1.80
2022-08-17T15:57:36.325Z,1.70
2022-08-17T15:58:42.357Z,1.70
2022-08-17T15:59:47.390Z,1.70
2022-08-17T16:01:14.923Z,1.70
2022-08-17T16:03:46.346Z,1.70
2022-08-17T16:04:03.140Z,1.60
2022-08-17T16:05:17.576Z,1.80
2022-08-17T16:06:24.216Z,1.90
2022-08-17T16:07:27.363Z,1.70
2022-08-17T16:08:30.562Z,1.70
2022-08-17T16:09:35.018Z,1.80
2022-08-17T16:10:38.313Z,1.60
2022-08-17T16:11:41.838Z,1.70
2022-08-17T16:12:47.146Z,1.70
2022-08-17T16:13:54.477Z,1.90
2022-08-17T16:14:58.244Z,1.90
2022-08-17T16:16:04.025Z,1.90
2022-08-17T16:17:40.120Z,1.80
2022-08-17T16:18:32.393Z,1.60